createdAt,value
2022-10-22T00:02:21.739Z,11.88
2022-10-22T00:08:23.388Z,9.57
2022-10-22T00:14:24.978Z,11.70
2022-10-22T00:20:26.433Z,10.88
2022-10-22T00:26:27.926Z,10.07
2022-10-22T00:32:29.475Z,10.70
2022-10-22T00:38:30.980Z,11.45
2022-10-22T00:44:51.315Z,9.87
2022-10-22T00:50:56.384Z,11.40
2022-10-22T00:56:57.844Z,9.80
2022-10-22T01:02:59.289Z,9.95
2022-10-22T01:09:03.553Z,11.10
2022-10-22T01:15:24.220Z,10.47
2022-10-22T01:21:39.349Z,10.50
2022-10-22T01:27:58.148Z,10.37
2022-10-22T01:34:00.457Z,9.95
2022-10-22T01:40:02.236Z,12.18
2022-10-22T01:46:05.134Z,12.17
2022-10-22T01:52:19.256Z,10.50
2022-10-22T01:58:39.421Z,10.73
2022-10-22T02:04:40.835Z,10.77
2022-10-22T02:10:44.127Z,10.82
2022-10-22T02:16:46.517Z,10.10
2022-10-22T02:22:48.106Z,11.23
2022-10-22T02:29:06.058Z,8.90
2022-10-22T02:35:10.180Z,10.43
2022-10-22T02:41:11.797Z,9.07
2022-10-22T02:47:13.243Z,11.50
2022-10-22T02:53:14.692Z,12.45
2022-10-22T02:59:16.210Z,10.37
2022-10-22T03:05:17.643Z,13.13
2022-10-22T03:11:19.094Z,10.25
2022-10-22T03:17:20.554Z,12.30
2022-10-22T03:23:21.992Z,13.60
2022-10-22T03:29:25.956Z,12.77
2022-10-22T03:35:27.585Z,11.38
2022-10-22T03:41:29.177Z,9.90
2022-10-22T03:47:30.614Z,11.80
2022-10-22T03:53:32.046Z,11.63
2022-10-22T03:59:37.732Z,11.47
2022-10-22T04:05:39.219Z,12.65
2022-10-22T04:11:40.696Z,12.52
2022-10-22T04:17:42.432Z,12.27
2022-10-22T04:23:45.309Z,12.13
2022-10-22T04:29:46.830Z,12.23
2022-10-22T04:35:48.315Z,13.00
2022-10-22T04:41:49.803Z,11.05
2022-10-22T04:47:51.374Z,13.23
2022-10-22T04:53:52.911Z,12.50
2022-10-22T04:59:54.349Z,13.63
2022-10-22T05:05:55.777Z,12.40
2022-10-22T05:11:57.263Z,17.85
2022-10-22T05:17:58.731Z,14.10
2022-10-22T05:24:00.339Z,12.43
2022-10-22T05:30:01.772Z,12.30
2022-10-22T05:36:05.218Z,10.52
2022-10-22T05:42:06.688Z,12.40
2022-10-22T05:48:09.565Z,12.87
2022-10-22T05:54:15.407Z,13.68
2022-10-22T06:00:17.029Z,11.13
2022-10-22T06:06:20.015Z,13.60
2022-10-22T06:12:21.435Z,13.52
2022-10-22T06:18:22.926Z,15.20
2022-10-22T06:24:24.355Z,11.13
2022-10-22T06:30:25.867Z,12.60
2022-10-22T06:36:27.407Z,11.80
2022-10-22T06:42:29.059Z,9.32
2022-10-22T06:48:30.845Z,12.90
2022-10-22T06:54:32.404Z,13.07
2022-10-22T07:06:40.395Z,10.07
2022-10-22T07:12:41.998Z,9.55
2022-10-22T07:18:44.168Z,11.03
2022-10-22T07:24:45.640Z,8.60
2022-10-22T07:30:47.413Z,11.03
2022-10-22T07:36:49.393Z,9.90
2022-10-22T07:42:50.820Z,9.13
2022-10-22T07:48:52.326Z,7.90
2022-10-22T07:54:53.751Z,9.15
2022-10-22T08:00:56.275Z,9.40
2022-10-22T08:06:57.705Z,7.22
2022-10-22T08:12:59.390Z,6.72
2022-10-22T08:19:00.819Z,6.53
2022-10-22T08:25:02.263Z,8.13
2022-10-22T08:31:07.898Z,5.67
2022-10-22T08:37:10.497Z,5.10
2022-10-22T08:43:24.584Z,5.45
2022-10-22T08:49:27.479Z,4.70
2022-10-22T08:55:32.732Z,3.95
2022-10-22T09:01:38.497Z,4.07
2022-10-22T09:07:42.850Z,4.22
2022-10-22T09:13:45.313Z,3.40
2022-10-22T09:19:52.801Z,4.37
2022-10-22T09:25:55.376Z,3.78
2022-10-22T09:31:56.865Z,3.20
2022-10-22T09:37:59.038Z,4.35
2022-10-22T09:44:00.487Z,2.95
2022-10-22T09:50:20.674Z,3.90
2022-10-22T09:56:25.075Z,6.32
2022-10-22T10:02:44.974Z,2.70
2022-10-22T10:08:47.150Z,2.90
2022-10-22T10:15:00.962Z,5.28
2022-10-22T10:21:02.667Z,6.87
2022-10-22T10:27:04.195Z,5.80
2022-10-22T10:33:11.683Z,4.23
2022-10-22T10:39:18.673Z,2.92
2022-10-22T10:45:24.984Z,4.97
2022-10-22T10:51:33.117Z,4.37
2022-10-22T10:57:54.699Z,2.70
2022-10-22T11:04:02.477Z,3.97
2022-10-22T11:10:09.129Z,3.47
2022-10-22T11:16:31.082Z,4.00
2022-10-22T11:22:40.134Z,3.23
2022-10-22T11:28:45.767Z,3.78
2022-10-22T11:34:51.644Z,2.73
2022-10-22T11:41:19.507Z,2.08
2022-10-22T11:47:24.459Z,3.38
2022-10-22T11:53:25.879Z,3.10
2022-10-22T11:59:41.263Z,2.53
2022-10-22T12:05:43.247Z,2.90
2022-10-22T12:11:50.152Z,3.20
2022-10-22T12:17:56.427Z,3.70
2022-10-22T12:23:57.951Z,3.43
2022-10-22T12:30:00.301Z,4.70
2022-10-22T12:36:04.057Z,3.90
2022-10-22T12:42:06.267Z,4.35
2022-10-22T12:48:22.403Z,4.55
2022-10-22T12:54:31.977Z,2.77
2022-10-22T13:00:34.886Z,3.53
2022-10-22T13:06:37.095Z,4.00
2022-10-22T13:12:38.777Z,3.60
2022-10-22T13:18:40.748Z,5.35
2022-10-22T13:24:48.950Z,3.33
2022-10-22T13:30:54.715Z,4.50
2022-10-22T13:36:56.210Z,5.73
2022-10-22T13:42:57.693Z,3.20
2022-10-22T13:48:59.923Z,4.07
2022-10-22T13:55:01.794Z,5.43
2022-10-22T14:01:08.561Z,3.40
2022-10-22T14:07:17.190Z,5.57
2022-10-22T14:13:19.426Z,6.32
2022-10-22T14:19:20.958Z,4.95
2022-10-22T14:25:23.563Z,5.07
2022-10-22T14:31:25.197Z,3.92
2022-10-22T14:37:26.682Z,4.87
2022-10-22T14:43:29.783Z,4.30
2022-10-22T14:49:31.224Z,5.07
2022-10-22T14:55:32.752Z,5.90
2022-10-22T15:01:34.199Z,5.43
2022-10-22T15:07:35.890Z,5.77
2022-10-22T15:13:37.579Z,3.95
2022-10-22T15:19:39.020Z,4.18
2022-10-22T15:25:43.407Z,5.63
2022-10-22T15:31:49.165Z,5.70
2022-10-22T15:37:51.547Z,5.50
2022-10-22T15:43:53.002Z,7.60
2022-10-22T15:49:54.551Z,5.00
2022-10-22T15:55:55.983Z,5.93
2022-10-22T16:01:57.456Z,7.25
2022-10-22T16:07:58.952Z,4.17
2022-10-22T16:14:01.157Z,5.57
2022-10-22T16:20:02.702Z,8.77
2022-10-22T16:26:04.206Z,6.47
2022-10-22T16:32:06.142Z,8.25
2022-10-22T16:38:07.763Z,5.97
2022-10-22T16:44:09.810Z,9.60
2022-10-22T16:50:11.307Z,6.03
2022-10-22T16:56:13.482Z,6.80
2022-10-22T17:02:14.908Z,7.68
2022-10-22T17:08:16.448Z,5.90
2022-10-22T17:14:17.985Z,8.98
2022-10-22T17:20:19.790Z,8.02
2022-10-22T17:26:22.626Z,7.70
2022-10-22T17:32:24.162Z,8.45
2022-10-22T17:38:25.647Z,7.10
2022-10-22T17:44:27.113Z,6.90
2022-10-22T17:50:28.601Z,7.80
2022-10-22T17:56:30.287Z,6.47
2022-10-22T18:02:31.876Z,8.13
2022-10-22T18:08:33.422Z,8.97
2022-10-22T18:14:34.951Z,8.98
2022-10-22T18:20:36.402Z,5.22
2022-10-22T18:26:37.851Z,6.77
2022-10-22T18:32:39.466Z,7.40
2022-10-22T18:38:41.025Z,7.70
2022-10-22T18:44:42.517Z,7.43
2022-10-22T18:50:44.411Z,9.85
2022-10-22T18:56:46.089Z,10.20
2022-10-22T19:02:47.519Z,6.70
2022-10-22T19:08:51.304Z,11.40
2022-10-22T19:14:53.121Z,9.35
2022-10-22T19:20:58.589Z,7.18
2022-10-22T19:27:00.147Z,8.83
2022-10-22T19:33:01.615Z,7.63
2022-10-22T19:39:03.763Z,11.43
2022-10-22T19:45:06.572Z,7.15
2022-10-22T19:51:09.539Z,9.40
2022-10-22T19:57:14.037Z,8.20
2022-10-22T20:03:15.597Z,9.90
2022-10-22T20:09:17.131Z,8.93
2022-10-22T20:15:18.730Z,11.43
2022-10-22T20:21:20.561Z,12.45
2022-10-22T20:27:22.002Z,12.13
2022-10-22T20:33:23.558Z,9.35
2022-10-22T20:39:24.995Z,9.87
2022-10-22T20:45:27.332Z,9.38
2022-10-22T20:51:29.069Z,9.77
2022-10-22T20:57:30.613Z,10.20
2022-10-22T21:09:38.508Z,8.20
2022-10-22T21:15:39.938Z,7.80
2022-10-22T21:21:41.383Z,10.60
2022-10-22T21:27:42.827Z,10.97
2022-10-22T21:33:44.277Z,9.02
2022-10-22T21:39:45.714Z,8.37
2022-10-22T21:45:47.373Z,10.27
2022-10-22T21:51:48.803Z,12.85
2022-10-22T21:57:50.225Z,12.23
2022-10-22T22:03:52.546Z,11.15
2022-10-22T22:09:53.988Z,11.73
2022-10-22T22:15:59.029Z,11.52
2022-10-22T22:22:00.454Z,11.88
2022-10-22T22:28:01.907Z,9.97
2022-10-22T22:34:03.430Z,10.35
2022-10-22T22:40:05.127Z,11.97
2022-10-22T22:46:08.463Z,10.07
2022-10-22T22:52:09.939Z,8.73
2022-10-22T22:58:11.395Z,11.43
2022-10-22T23:04:16.139Z,9.32
2022-10-22T23:10:17.585Z,13.43
2022-10-22T23:16:20.147Z,8.57
2022-10-22T23:22:21.596Z,9.27
2022-10-22T23:28:24.019Z,11.63
2022-10-22T23:34:25.774Z,10.10
2022-10-22T23:40:27.203Z,11.87
2022-10-22T23:46:28.675Z,9.07
2022-10-22T23:52:30.104Z,10.65
2022-10-22T23:58:32.187Z,12.23
